THUNDERSTORM

Not for real navigation. The accuracy of this data is not assured See disclaimer for more information



ICAO NAME COUNTRY WIND Kt GUST Kt VIS m TEMP/DEW C BARO METAR
SLET Santa Cruz / El Trompillo Bolivia 12 0 1000 20/20 30.06 SLET 161200Z 30012KT 1000 TSRA BKN005 BKN017 FEW027CB OVC070 20/20 Q1018
SABE Aeroparque Bs. As. Aerodrome Argentina 18 0 1400 16/16 30.12 SABE 161200Z 12018KT 1400 R13/1800D RA OVC005 16/16 Q1020 BECMG 3000 TSRA FEW050CB
KAQX 0 0 1600 21/21 30.08 KAQX 161155Z AUTO 00000KT 1 0.5SM BR OVC002 21/21 A3008 RMK AO2 TS
PAGY SKAGWAY AIRPORT AK United States 0 0 1600 11/11 29.94 PAGY 161204Z AUTO 00000KT 1 0.5SM -RA BR OVC003 11/11 A2994 RMK AO2 VIS 3/4V5 P0000 T01060106 TS
PAKT KETCHIKAN INTERNATIONAL AIRPOR AK United States 6 0 1600 12/11 30.04 PAKT 161153Z AUTO 15006KT 1 0.25SM -RA BR OVC009 12/11 A3004 RMK RAB32 SLP174 P0001 60013 70028 T011

Show more